Time;durP1;ratioP1;P1;durP2;ratioP2;P2;SDS_P1;SDS_P2;PMS_P1;PMS_P2;Temp;Humidity;BMP_temperature;BMP_pressure;BME280_temperature;BME280_humidity;BME280_pressure;Samples;Min_cycle;Max_cycle;Signal;HPM_P1;HPM_P2
2021/08/15 00:00:58;;;;;;;13.30;12.20;;;23.00;99.90;;;;;;5012373;28;20254;-66
2021/08/15 00:03:24;;;;;;;10.90;10.00;;;23.00;99.90;;;;;;5012271;28;20996;-65
2021/08/15 00:05:49;;;;;;;12.33;11.33;;;22.90;99.90;;;;;;5012265;28;20178;-65
2021/08/15 00:08:15;;;;;;;12.60;11.50;;;22.80;99.90;;;;;;5000276;28;20187;-65
2021/08/15 00:10:41;;;;;;;12.40;11.30;;;22.70;99.90;;;;;;4992383;28;20198;-64
2021/08/15 00:13:06;;;;;;;13.47;12.27;;;22.70;99.90;;;;;;4992586;28;20187;-66
2021/08/15 00:15:32;;;;;;;12.93;11.63;;;22.60;99.90;;;;;;4992607;28;20164;-66
2021/08/15 00:17:58;;;;;;;12.20;10.90;;;22.60;99.90;;;;;;4992568;28;20494;-65
2021/08/15 00:20:24;;;;;;;13.23;12.03;;;22.50;99.90;;;;;;4992002;28;20554;-65
2021/08/15 00:22:49;;;;;;;15.93;11.13;;;22.50;99.90;;;;;;4993446;28;20469;-66
2021/08/15 00:25:16;;;;;;;13.00;12.00;;;22.50;99.90;;;;;;4996546;28;20180;-66
2021/08/15 00:27:43;;;;;;;12.83;11.10;;;22.40;99.90;;;;;;4996454;28;20171;-66
2021/08/15 00:30:09;;;;;;;13.67;12.47;;;22.50;99.90;;;;;;4996103;28;20830;-65
2021/08/15 00:32:36;;;;;;;13.17;11.97;;;22.50;99.90;;;;;;4996319;28;20435;-65
2021/08/15 00:35:04;;;;;;;12.47;11.23;;;22.40;99.90;;;;;;4996142;28;20429;-66
2021/08/15 00:37:30;;;;;;;12.83;11.73;;;22.40;99.90;;;;;;4996253;28;20469;-65
2021/08/15 00:39:56;;;;;;;14.60;12.57;;;22.40;99.90;;;;;;4995911;28;20423;-66
2021/08/15 00:42:21;;;;;;;12.43;11.10;;;22.30;99.90;;;;;;4996128;28;20692;-65
2021/08/15 00:44:48;;;;;;;13.33;12.13;;;22.20;99.90;;;;;;4996133;28;20175;-65
2021/08/15 00:47:13;;;;;;;12.40;11.30;;;22.20;99.90;;;;;;4996112;28;20202;-65
2021/08/15 00:49:39;;;;;;;13.50;12.40;;;22.20;99.90;;;;;;4995554;28;20415;-66
2021/08/15 00:52:05;;;;;;;12.47;11.37;;;22.20;99.90;;;;;;4995951;28;20195;-65
2021/08/15 00:54:32;;;;;;;13.23;12.03;;;22.10;99.90;;;;;;4995947;28;20164;-65
2021/08/15 00:57:00;;;;;;;13.70;12.40;;;22.10;99.90;;;;;;4996077;28;20411;-65
2021/08/15 00:59:26;;;;;;;13.90;12.70;;;22.00;99.90;;;;;;4995604;28;20501;-66
2021/08/15 01:01:52;;;;;;;15.03;12.57;;;21.90;99.90;;;;;;4995773;28;20530;-65
2021/08/15 01:04:19;;;;;;;13.77;12.47;;;21.90;99.90;;;;;;4995720;28;20176;-65
2021/08/15 01:06:47;;;;;;;14.27;13.10;;;21.80;99.90;;;;;;4995759;28;20477;-66
2021/08/15 01:09:12;;;;;;;13.20;12.00;;;21.80;99.90;;;;;;4995545;28;20426;-66
2021/08/15 01:11:38;;;;;;;14.93;13.73;;;21.80;99.90;;;;;;4995569;28;20835;-66
2021/08/15 01:14:05;;;;;;;13.93;12.53;;;21.80;99.90;;;;;;4995689;28;20175;-66
2021/08/15 01:16:32;;;;;;;15.87;14.47;;;21.80;99.90;;;;;;4995610;28;20172;-65
2021/08/15 01:18:57;;;;;;;15.97;14.30;;;21.90;99.90;;;;;;4995302;28;20422;-65
2021/08/15 01:21:23;;;;;;;14.33;13.07;;;21.90;99.90;;;;;;4995488;28;21027;-65
2021/08/15 01:23:49;;;;;;;13.37;12.17;;;21.90;99.90;;;;;;4995319;28;20211;-66
2021/08/15 01:26:16;;;;;;;15.50;14.17;;;21.90;99.90;;;;;;4995455;28;20199;-66
2021/08/15 01:28:43;;;;;;;13.50;12.40;;;21.80;99.90;;;;;;4995143;28;20171;-65
2021/08/15 01:31:10;;;;;;;14.70;13.50;;;21.80;99.90;;;;;;4995227;28;20544;-65
2021/08/15 01:33:39;;;;;;;16.07;14.50;;;21.80;99.90;;;;;;4994812;28;20625;-66
2021/08/15 01:36:06;;;;;;;14.57;13.07;;;21.80;99.90;;;;;;4994471;28;20502;-65
2021/08/15 01:38:34;;;;;;;13.90;12.70;;;21.70;99.90;;;;;;4994845;28;20415;-65
2021/08/15 01:41:00;;;;;;;14.90;13.30;;;21.70;99.90;;;;;;4995185;28;20501;-65
2021/08/15 01:43:27;;;;;;;13.73;12.63;;;21.60;99.90;;;;;;4994925;28;20939;-66
2021/08/15 01:45:52;;;;;;;14.43;13.13;;;21.60;99.90;;;;;;4994967;28;20255;-66
2021/08/15 01:48:19;;;;;;;14.17;12.70;;;21.50;99.90;;;;;;4994900;28;20630;-65
2021/08/15 01:50:45;;;;;;;15.77;14.50;;;21.50;99.90;;;;;;4994766;28;20207;-65
2021/08/15 01:53:13;;;;;;;16.60;14.90;;;21.40;99.90;;;;;;4994963;28;20943;-66
2021/08/15 01:55:39;;;;;;;15.47;14.07;;;21.30;99.90;;;;;;4994894;28;20704;-65
2021/08/15 01:58:10;;;;;;;14.60;13.20;;;21.40;99.90;;;;;;4977480;28;20465;-65
2021/08/15 02:00:37;;;;;;;14.50;13.23;;;21.30;99.90;;;;;;4994528;28;20410;-65
2021/08/15 02:03:03;;;;;;;13.33;12.30;;;21.30;99.90;;;;;;4994887;28;21010;-66
2021/08/15 02:05:29;;;;;;;14.03;12.83;;;21.10;99.90;;;;;;4994689;28;20418;-65
2021/08/15 02:07:54;;;;;;;14.03;12.83;;;21.10;99.90;;;;;;5003845;28;20480;-65
2021/08/15 02:10:23;;;;;;;15.53;13.97;;;21.10;99.90;;;;;;5013877;28;20202;-66
2021/08/15 02:12:49;;;;;;;13.50;12.30;;;21.10;99.90;;;;;;5014071;28;20186;-66
2021/08/15 02:15:14;;;;;;;15.40;13.93;;;21.20;99.90;;;;;;5014050;28;21001;-65
2021/08/15 02:17:40;;;;;;;14.23;12.90;;;21.10;99.90;;;;;;5014081;28;20175;-65
2021/08/15 02:20:06;;;;;;;12.33;11.23;;;21.20;99.90;;;;;;5013646;28;20179;-65
2021/08/15 02:22:32;;;;;;;14.10;12.87;;;21.20;99.90;;;;;;5013813;28;20587;-64
2021/08/15 02:24:58;;;;;;;13.83;12.73;;;21.10;99.90;;;;;;5013917;28;20759;-66
2021/08/15 02:27:23;;;;;;;13.63;12.53;;;21.10;99.90;;;;;;5013901;28;20171;-66
2021/08/15 02:29:49;;;;;;;13.90;12.63;;;21.10;99.90;;;;;;5013392;28;20664;-64
2021/08/15 02:32:14;;;;;;;14.23;12.83;;;21.00;99.90;;;;;;5013675;28;20193;-65
2021/08/15 02:34:40;;;;;;;13.20;12.20;;;21.00;99.90;;;;;;5013722;28;20167;-65
2021/08/15 02:37:05;;;;;;;14.93;13.47;;;21.00;99.90;;;;;;4995969;28;20175;-64
2021/08/15 02:39:31;;;;;;;13.67;12.47;;;21.00;99.90;;;;;;5013377;28;20167;-65
2021/08/15 02:41:56;;;;;;;15.13;12.17;;;20.90;99.90;;;;;;5013441;28;20261;-66
2021/08/15 02:44:22;;;;;;;13.67;12.47;;;20.90;99.90;;;;;;5013470;28;20187;-65
2021/08/15 02:46:47;;;;;;;13.93;12.63;;;20.90;99.90;;;;;;5013185;28;20168;-66
2021/08/15 02:49:13;;;;;;;13.70;12.53;;;20.90;99.90;;;;;;5013287;28;20547;-66
2021/08/15 02:51:39;;;;;;;13.77;12.63;;;20.90;99.90;;;;;;5013135;28;20199;-64
2021/08/15 02:54:04;;;;;;;12.93;11.83;;;20.80;99.90;;;;;;4995790;28;20215;-65
2021/08/15 02:56:30;;;;;;;13.50;12.30;;;20.70;99.90;;;;;;5014031;28;20659;-65
2021/08/15 02:58:55;;;;;;;13.67;12.47;;;20.70;99.90;;;;;;5012861;28;20220;-64
2021/08/15 03:01:21;;;;;;;13.30;12.20;;;20.70;99.90;;;;;;5013277;28;20430;-65
2021/08/15 03:03:46;;;;;;;14.77;13.57;;;20.70;99.90;;;;;;5013291;28;20302;-65
2021/08/15 03:06:12;;;;;;;14.90;13.20;;;20.70;99.90;;;;;;5013089;28;20175;-65
2021/08/15 03:08:37;;;;;;;14.43;13.10;;;20.70;99.90;;;;;;5012810;28;20186;-65
2021/08/15 03:11:03;;;;;;;12.53;11.53;;;20.70;99.90;;;;;;5013087;28;20198;-65
2021/08/15 03:13:28;;;;;;;13.20;12.07;;;20.70;99.90;;;;;;5012952;28;20258;-65
2021/08/15 03:15:54;;;;;;;13.53;12.23;;;20.80;99.90;;;;;;5013017;28;20175;-65
2021/08/15 03:18:19;;;;;;;14.20;12.90;;;20.80;99.90;;;;;;5012822;28;20175;-65
2021/08/15 03:20:45;;;;;;;12.67;11.47;;;20.90;99.90;;;;;;5012672;28;20183;-66
2021/08/15 03:23:11;;;;;;;13.97;12.87;;;20.90;99.90;;;;;;5012704;28;20217;-65
2021/08/15 03:25:37;;;;;;;13.30;12.20;;;20.80;99.90;;;;;;5012847;28;20209;-65
2021/08/15 03:28:04;;;;;;;13.03;11.63;;;20.80;99.90;;;;;;5012745;28;20441;-66
2021/08/15 03:30:30;;;;;;;13.73;12.50;;;20.90;99.90;;;;;;5012392;28;20497;-65
2021/08/15 03:32:56;;;;;;;12.77;11.57;;;20.80;99.90;;;;;;5012676;28;20468;-65
2021/08/15 03:35:21;;;;;;;13.90;12.63;;;20.80;99.90;;;;;;5012601;28;20595;-65
2021/08/15 03:37:47;;;;;;;13.10;11.90;;;20.70;99.90;;;;;;5012718;28;20231;-65
2021/08/15 03:40:12;;;;;;;12.90;11.73;;;20.70;99.90;;;;;;5012332;28;20525;-66
2021/08/15 03:42:38;;;;;;;13.90;12.70;;;20.60;99.90;;;;;;5012468;28;20193;-65
2021/08/15 03:45:08;;;;;;;14.13;13.03;;;20.60;99.90;;;;;;5012475;28;20178;-65
2021/08/15 03:47:34;;;;;;;14.70;12.90;;;20.60;99.90;;;;;;5012475;28;20206;-64
2021/08/15 03:50:01;;;;;;;13.90;12.70;;;20.60;99.90;;;;;;5011978;28;20525;-64
2021/08/15 03:52:27;;;;;;;12.87;11.53;;;20.60;99.90;;;;;;5012364;28;20433;-65
2021/08/15 03:54:52;;;;;;;13.93;12.90;;;20.50;99.90;;;;;;5012314;28;20756;-66
2021/08/15 03:57:18;;;;;;;14.90;13.40;;;20.50;99.90;;;;;;5011712;28;20646;-65
2021/08/15 03:59:44;;;;;;;14.57;13.27;;;20.50;99.90;;;;;;5012097;28;20170;-65
2021/08/15 04:02:10;;;;;;;13.50;12.33;;;20.50;99.90;;;;;;4994657;28;20729;-65
2021/08/15 04:04:36;;;;;;;13.90;12.77;;;20.50;99.90;;;;;;5012266;28;20442;-65
2021/08/15 04:07:01;;;;;;;13.13;11.80;;;20.50;99.90;;;;;;5010172;28;20167;-65
2021/08/15 04:09:27;;;;;;;14.27;12.97;;;20.40;99.90;;;;;;4992273;28;20218;-66
2021/08/15 04:11:52;;;;;;;16.17;14.77;;;20.40;99.90;;;;;;4992536;28;20562;-66
2021/08/15 04:14:18;;;;;;;13.40;12.23;;;20.30;99.90;;;;;;4992545;28;20592;-66
2021/08/15 04:16:44;;;;;;;13.77;12.57;;;20.30;99.90;;;;;;4992566;28;20633;-65
2021/08/15 04:19:09;;;;;;;16.30;14.87;;;20.20;99.90;;;;;;4992197;28;20168;-65
2021/08/15 04:21:35;;;;;;;14.60;12.90;;;20.20;99.90;;;;;;4974822;28;20176;-65
2021/08/15 04:24:00;;;;;;;14.43;12.87;;;20.20;99.90;;;;;;4993056;28;20250;-64
2021/08/15 04:26:26;;;;;;;15.73;14.13;;;20.20;99.90;;;;;;4992539;28;20182;-66
2021/08/15 04:28:52;;;;;;;14.60;13.30;;;20.10;99.90;;;;;;4992174;28;20636;-65
2021/08/15 04:31:18;;;;;;;14.13;12.90;;;20.10;99.90;;;;;;4992333;28;20210;-65
2021/08/15 04:33:43;;;;;;;15.77;14.30;;;20.10;99.90;;;;;;4992279;28;20438;-63
2021/08/15 04:36:09;;;;;;;14.97;13.77;;;20.00;99.90;;;;;;4992430;28;20521;-65
2021/08/15 04:38:34;;;;;;;16.57;14.97;;;20.10;99.90;;;;;;4992025;28;20234;-65
2021/08/15 04:41:00;;;;;;;15.17;13.70;;;20.10;99.90;;;;;;4992355;28;20171;-65
2021/08/15 04:43:25;;;;;;;13.57;12.30;;;20.10;99.90;;;;;;4992277;28;20196;-65
2021/08/15 04:45:51;;;;;;;15.67;14.27;;;20.10;99.90;;;;;;4992349;28;20641;-65
2021/08/15 04:48:17;;;;;;;15.17;13.97;;;20.20;99.90;;;;;;4992418;28;20191;-63
2021/08/15 04:50:43;;;;;;;15.37;13.77;;;20.30;99.90;;;;;;4992023;28;20195;-66
2021/08/15 04:53:09;;;;;;;18.67;15.83;;;20.30;99.90;;;;;;4992230;28;20286;-65
2021/08/15 04:55:35;;;;;;;16.20;14.80;;;20.40;99.90;;;;;;4992174;28;20908;-65
2021/08/15 04:58:01;;;;;;;15.87;14.30;;;20.40;99.90;;;;;;4992217;28;20308;-65
2021/08/15 05:00:27;;;;;;;16.80;15.10;;;20.40;99.90;;;;;;4992147;28;20469;-65
2021/08/15 05:02:52;;;;;;;16.60;15.20;;;20.50;99.90;;;;;;4992066;28;20935;-66
2021/08/15 05:05:18;;;;;;;15.90;14.50;;;20.40;99.90;;;;;;4992080;28;20183;-64
2021/08/15 05:07:43;;;;;;;17.53;16.03;;;20.60;99.90;;;;;;4999799;28;20182;-65
2021/08/15 05:10:09;;;;;;;18.63;17.00;;;20.60;99.90;;;;;;5014810;28;20218;-65
2021/08/15 05:12:35;;;;;;;17.13;15.50;;;20.60;99.90;;;;;;5015299;28;20219;-65
2021/08/15 05:15:00;;;;;;;21.70;16.83;;;20.70;99.90;;;;;;5015488;28;20171;-64
2021/08/15 05:17:26;;;;;;;17.00;15.27;;;20.90;99.90;;;;;;5015229;28;20167;-65
2021/08/15 05:19:52;;;;;;;18.47;16.70;;;20.90;99.90;;;;;;5014818;28;20167;-65
2021/08/15 05:22:17;;;;;;;16.23;14.90;;;21.00;99.90;;;;;;5014930;28;20289;-63
2021/08/15 05:24:43;;;;;;;16.00;14.60;;;21.20;99.90;;;;;;5015123;28;20179;-66
2021/08/15 05:27:08;;;;;;;15.80;14.17;;;21.30;99.90;;;;;;5015062;28;20775;-65
2021/08/15 05:29:34;;;;;;;15.30;13.90;;;21.40;99.90;;;;;;5014671;28;20583;-65
2021/08/15 05:32:00;;;;;;;16.40;14.80;;;21.50;99.90;;;;;;5014742;28;20328;-66
2021/08/15 05:34:25;;;;;;;15.77;14.47;;;21.50;99.90;;;;;;5014873;28;20159;-66
2021/08/15 05:36:51;;;;;;;15.40;13.90;;;21.60;99.90;;;;;;5014879;28;20792;-65
2021/08/15 05:39:17;;;;;;;18.93;14.80;;;21.70;99.90;;;;;;5014416;28;20727;-65
2021/08/15 05:41:42;;;;;;;17.80;16.07;;;21.80;99.90;;;;;;5014747;28;20175;-65
2021/08/15 05:44:08;;;;;;;16.53;15.33;;;21.90;99.90;;;;;;5014841;28;20181;-66
2021/08/15 05:46:33;;;;;;;16.30;15.00;;;22.00;99.90;;;;;;5014634;28;20211;-65
2021/08/15 05:48:59;;;;;;;16.57;15.10;;;22.30;99.90;;;;;;5014337;28;20230;-66
2021/08/15 05:51:24;;;;;;;16.47;15.17;;;22.50;99.90;;;;;;5014354;28;20237;-65
2021/08/15 05:53:50;;;;;;;15.20;14.00;;;22.70;99.90;;;;;;5014381;28;20545;-64
2021/08/15 05:56:15;;;;;;;17.03;15.47;;;22.80;99.90;;;;;;5014581;28;20750;-65
2021/08/15 05:58:42;;;;;;;18.33;16.63;;;23.00;99.90;;;;;;5014197;28;20194;-65
2021/08/15 06:01:08;;;;;;;17.30;15.33;;;23.10;99.90;;;;;;5014573;28;20602;-66
2021/08/15 06:03:34;;;;;;;17.67;16.07;;;23.10;99.90;;;;;;5014289;28;20942;-66
2021/08/15 06:05:59;;;;;;;16.90;15.43;;;23.10;99.90;;;;;;5014188;28;20422;-66
2021/08/15 06:08:25;;;;;;;16.97;15.40;;;23.20;99.90;;;;;;5000511;28;20183;-66
2021/08/15 06:10:53;;;;;;;17.27;15.87;;;23.30;99.90;;;;;;4994562;28;20203;-66
2021/08/15 06:13:19;;;;;;;16.60;15.10;;;23.30;99.90;;;;;;4994422;28;20234;-66
2021/08/15 06:15:45;;;;;;;15.37;14.07;;;23.50;99.90;;;;;;4994408;28;20509;-66
2021/08/15 06:18:10;;;;;;;14.83;13.63;;;23.60;99.90;;;;;;4994382;28;20254;-64
2021/08/15 06:20:36;;;;;;;17.10;15.37;;;23.90;99.90;;;;;;4993395;28;20180;-66
2021/08/15 06:23:01;;;;;;;15.90;14.27;;;24.10;99.90;;;;;;4994133;28;20210;-66
2021/08/15 06:25:27;;;;;;;17.13;15.63;;;24.30;99.90;;;;;;4994394;28;20203;-64
2021/08/15 06:27:52;;;;;;;18.33;16.67;;;24.40;99.90;;;;;;4994342;28;20171;-65
2021/08/15 06:30:21;;;;;;;17.07;15.67;;;24.50;99.90;;;;;;4993906;28;20191;-64
2021/08/15 06:32:55;;;;;;;16.43;15.03;;;24.70;99.90;;;;;;4994136;28;20200;-64
2021/08/15 06:35:23;;;;;;;15.77;14.20;;;24.90;99.90;;;;;;4994100;28;20504;-64
2021/08/15 06:37:52;;;;;;;15.77;14.30;;;25.10;99.90;;;;;;4994124;28;20970;-64
2021/08/15 06:40:19;;;;;;;14.70;13.50;;;25.30;99.90;;;;;;4993981;28;20628;-65
2021/08/15 06:42:45;;;;;;;14.93;13.43;;;25.40;99.90;;;;;;4976465;28;20443;-64
2021/08/15 06:45:11;;;;;;;12.60;11.57;;;25.50;99.90;;;;;;4994395;28;20418;-63
2021/08/15 06:47:37;;;;;;;14.63;13.30;;;25.60;99.90;;;;;;4976466;28;20715;-65
2021/08/15 06:50:06;;;;;;;13.53;12.33;;;25.80;99.90;;;;;;4993383;28;20824;-64
2021/08/15 06:52:33;;;;;;;18.63;17.03;;;25.90;99.90;;;;;;4993847;28;20435;-64
2021/08/15 06:54:59;;;;;;;14.70;13.40;;;26.10;99.90;;;;;;4993778;28;20768;-64
2021/08/15 06:57:25;;;;;;;12.53;11.53;;;26.30;99.90;;;;;;4993719;28;20415;-65
2021/08/15 06:59:51;;;;;;;14.50;13.13;;;26.50;99.90;;;;;;4993389;28;20418;-65
2021/08/15 07:02:16;;;;;;;13.63;12.60;;;26.70;99.90;;;;;;4993559;28;20971;-64
2021/08/15 07:04:42;;;;;;;14.00;12.80;;;26.80;99.90;;;;;;4993506;28;20183;-63
2021/08/15 07:07:08;;;;;;;13.80;12.70;;;27.00;99.90;;;;;;4996616;28;20163;-65
2021/08/15 07:09:33;;;;;;;18.43;13.67;;;27.10;99.90;;;;;;5012905;28;20193;-64
2021/08/15 07:11:59;;;;;;;13.90;12.60;;;27.20;99.90;;;;;;5012936;28;20241;-63
2021/08/15 07:14:25;;;;;;;13.40;12.30;;;27.30;99.90;;;;;;5013037;28;20603;-64
2021/08/15 07:16:51;;;;;;;13.60;12.33;;;27.50;99.90;;;;;;5013476;28;20567;-64
2021/08/15 07:19:16;;;;;;;14.93;13.53;;;27.60;99.90;;;;;;5012534;28;20425;-64
2021/08/15 07:21:42;;;;;;;13.93;12.73;;;27.70;99.90;;;;;;5012684;28;20171;-64
2021/08/15 07:24:07;;;;;;;15.30;13.90;;;27.90;99.90;;;;;;5012912;28;20663;-65
2021/08/15 07:26:33;;;;;;;14.43;13.00;;;28.20;99.90;;;;;;5012872;28;20647;-64
2021/08/15 07:28:59;;;;;;;13.07;11.97;;;28.30;99.90;;;;;;5012510;28;20173;-65
2021/08/15 07:31:24;;;;;;;14.33;13.17;;;28.60;99.90;;;;;;5012835;28;20461;-63
2021/08/15 07:33:50;;;;;;;15.50;14.10;;;28.60;99.90;;;;;;5011950;28;20205;-65
2021/08/15 07:36:16;;;;;;;14.93;13.57;;;28.60;99.90;;;;;;5012668;28;20171;-64
2021/08/15 07:38:41;;;;;;;12.37;11.37;;;28.50;99.90;;;;;;5012373;28;20193;-64
2021/08/15 07:41:07;;;;;;;14.80;13.47;;;28.50;99.90;;;;;;5012616;28;20254;-63
2021/08/15 07:43:32;;;;;;;15.47;12.60;;;28.70;99.90;;;;;;5012598;28;20261;-64
2021/08/15 07:45:58;;;;;;;14.37;13.13;;;28.80;99.90;;;;;;5012605;28;20167;-64
2021/08/15 07:48:24;;;;;;;15.83;13.97;;;29.00;99.90;;;;;;5012196;28;20688;-63
2021/08/15 07:50:51;;;;;;;13.80;12.60;;;29.10;99.90;;;;;;5012312;28;20537;-64
2021/08/15 07:53:27;;;;;;;15.17;13.90;;;29.10;99.90;;;;;;5012356;28;20260;-63
2021/08/15 07:55:54;;;;;;;13.53;12.23;;;29.50;99.90;;;;;;5012482;28;20468;-65
2021/08/15 07:58:21;;;;;;;15.03;13.70;;;29.60;99.90;;;;;;5012265;28;20429;-64
2021/08/15 08:00:47;;;;;;;15.97;13.67;;;29.80;99.90;;;;;;5012602;28;20421;-64
2021/08/15 08:03:13;;;;;;;13.83;12.63;;;29.90;99.90;;;;;;5012266;28;20536;-65
2021/08/15 08:05:39;;;;;;;14.00;12.70;;;30.00;99.90;;;;;;5012292;28;20898;-64
2021/08/15 08:08:06;;;;;;;14.63;13.53;;;30.10;99.90;;;;;;5012271;28;20175;-64
2021/08/15 08:10:32;;;;;;;15.17;13.70;;;30.20;99.90;;;;;;5012003;28;20829;-65
2021/08/15 08:12:57;;;;;;;13.80;12.60;;;30.30;99.90;;;;;;5012180;28;20442;-64
2021/08/15 08:15:23;;;;;;;17.37;13.93;;;30.30;99.90;;;;;;5011995;28;20928;-65
2021/08/15 08:17:49;;;;;;;16.97;15.03;;;30.70;99.90;;;;;;5012356;28;20175;-64
2021/08/15 08:20:17;;;;;;;14.30;12.90;;;31.00;99.90;;;;;;5011855;28;20175;-64
2021/08/15 08:22:43;;;;;;;13.10;12.00;;;31.00;99.90;;;;;;5011899;28;20234;-63
2021/08/15 08:25:09;;;;;;;14.90;13.63;;;31.20;99.90;;;;;;5012137;28;20422;-65
2021/08/15 08:27:35;;;;;;;13.77;12.67;;;31.40;99.90;;;;;;5012456;28;20181;-65
2021/08/15 08:30:00;;;;;;;14.07;12.83;;;31.60;99.90;;;;;;5011583;28;20504;-64
2021/08/15 08:32:26;;;;;;;14.03;12.83;;;31.70;99.90;;;;;;5012004;28;20205;-64
2021/08/15 08:34:51;;;;;;;14.97;13.80;;;31.80;99.90;;;;;;5011995;28;20567;-64
2021/08/15 08:37:18;;;;;;;13.90;12.80;;;31.60;99.90;;;;;;5012162;28;20254;-65
2021/08/15 08:39:44;;;;;;;15.40;14.10;;;31.30;99.90;;;;;;5011703;28;20163;-65
2021/08/15 08:42:12;;;;;;;15.10;13.80;;;31.40;99.90;;;;;;5011899;28;20491;-64
2021/08/15 08:44:38;;;;;;;15.30;13.80;;;31.10;99.90;;;;;;5014161;28;20629;-65
2021/08/15 08:47:07;;;;;;;13.13;12.13;;;31.60;99.90;;;;;;5015762;28;20456;-64
2021/08/15 08:49:35;;;;;;;13.40;12.37;;;32.00;99.70;;;;;;5015630;28;20167;-65
2021/08/15 08:52:01;;;;;;;15.40;13.90;;;32.00;99.50;;;;;;5015520;28;20465;-65
2021/08/15 08:54:28;;;;;;;15.30;13.90;;;32.50;98.90;;;;;;5015595;28;20935;-65
2021/08/15 08:56:54;;;;;;;14.90;13.70;;;32.50;98.70;;;;;;5015605;28;20167;-63
2021/08/15 08:59:20;;;;;;;13.80;12.70;;;32.40;99.10;;;;;;5015115;28;20886;-65
2021/08/15 09:01:45;;;;;;;15.43;13.80;;;32.90;98.30;;;;;;5015444;28;20520;-65
2021/08/15 09:04:11;;;;;;;14.57;13.27;;;33.40;97.50;;;;;;5015417;28;20421;-65
2021/08/15 09:06:40;;;;;;;14.40;13.27;;;33.60;96.90;;;;;;5015427;28;20249;-63
2021/08/15 09:09:13;;;;;;;13.80;12.60;;;33.60;96.60;;;;;;5015012;28;20249;-65
2021/08/15 09:11:40;;;;;;;14.73;13.30;;;33.90;96.20;;;;;;5015194;28;20904;-65
2021/08/15 09:14:12;;;;;;;13.80;12.70;;;34.20;95.70;;;;;;5015169;28;20414;-65
2021/08/15 09:16:58;;;;;;;13.23;12.00;;;34.50;95.00;;;;;;5015173;28;20410;-64
2021/08/15 09:19:37;;;;;;;14.67;13.67;;;34.90;94.40;;;;;;5014794;28;20421;-65
2021/08/15 09:22:25;;;;;;;15.20;14.00;;;34.80;93.60;;;;;;5014857;28;20970;-64
2021/08/15 09:24:54;;;;;;;13.83;12.70;;;35.30;93.60;;;;;;5015057;28;20470;-65
2021/08/15 09:27:28;;;;;;;13.30;12.20;;;35.80;92.30;;;;;;5015008;28;20421;-65
2021/08/15 09:30:14;;;;;;;12.50;11.50;;;36.40;91.00;;;;;;5014653;28;20425;-65
2021/08/15 09:32:56;;;;;;;13.43;12.33;;;36.70;90.40;;;;;;5014793;28;20469;-65
2021/08/15 09:35:30;;;;;;;13.77;12.50;;;37.10;88.20;;;;;;4997365;28;20454;-66
2021/08/15 09:38:17;;;;;;;14.40;13.30;;;36.80;86.90;;;;;;5014904;28;20503;-65
2021/08/15 09:40:49;;;;;;;13.33;12.03;;;36.80;87.10;;;;;;5014625;28;20479;-65
2021/08/15 09:43:18;;;;;;;13.70;12.60;;;37.20;85.80;;;;;;5014561;28;20548;-65
2021/08/15 09:45:46;;;;;;;15.90;14.63;;;37.40;84.00;;;;;;5014719;28;20456;-64
2021/08/15 09:48:39;;;;;;;13.07;11.77;;;37.40;83.20;;;;;;5014585;28;20432;-64
2021/08/15 09:51:08;;;;;;;15.40;13.90;;;36.80;84.10;;;;;;5014447;28;20970;-64
2021/08/15 09:53:35;;;;;;;14.10;12.90;;;35.80;84.80;;;;;;5014618;28;20526;-65
2021/08/15 09:56:03;;;;;;;13.23;12.33;;;36.10;85.40;;;;;;4995879;28;20475;-64
2021/08/15 09:58:28;;;;;;;16.27;13.80;;;36.40;85.00;;;;;;5014147;28;20429;-65
2021/08/15 10:00:55;;;;;;;12.30;11.30;;;36.50;83.70;;;;;;5014376;28;20919;-65
2021/08/15 10:03:21;;;;;;;13.13;11.93;;;37.50;81.30;;;;;;5014352;28;20199;-65
2021/08/15 10:05:47;;;;;;;11.70;10.73;;;38.50;77.80;;;;;;5014248;28;20430;-65
2021/08/15 10:08:14;;;;;;;11.77;10.77;;;38.50;75.60;;;;;;5014072;28;20568;-62
2021/08/15 10:10:40;;;;;;;13.10;11.90;;;39.00;75.10;;;;;;5013959;28;20289;-65
2021/08/15 10:13:06;;;;;;;12.30;11.20;;;38.50;74.10;;;;;;5014087;28;20519;-64
2021/08/15 10:15:34;;;;;;;11.53;10.43;;;37.90;74.40;;;;;;5014007;28;20418;-65
2021/08/15 10:18:02;;;;;;;12.57;11.77;;;37.20;75.60;;;;;;5014043;28;20448;-64
2021/08/15 10:20:29;;;;;;;13.73;12.73;;;36.20;77.50;;;;;;5013706;28;20440;-65
2021/08/15 10:23:09;;;;;;;15.43;12.73;;;34.20;81.50;;;;;;5027258;23;20490;-64
2021/08/15 10:25:41;;;;;;;17.30;12.20;;;33.70;84.60;;;;;;4986211;28;20426;-65
2021/08/15 10:28:08;;;;;;;13.53;12.50;;;35.00;82.80;;;;;;4994437;28;20415;-64
2021/08/15 10:30:34;;;;;;;12.87;11.87;;;35.90;80.40;;;;;;4993913;28;20597;-64
2021/08/15 10:32:59;;;;;;;12.50;11.50;;;35.30;80.00;;;;;;5003790;28;20469;-64
2021/08/15 10:35:29;;;;;;;13.10;12.00;;;35.00;81.40;;;;;;5013828;28;20179;-65
2021/08/15 10:38:15;;;;;;;13.30;12.10;;;35.60;82.30;;;;;;5013838;28;20202;-64
2021/08/15 10:40:41;;;;;;;11.97;11.07;;;37.50;78.00;;;;;;4996245;28;20846;-65
2021/08/15 10:43:10;;;;;;;11.87;10.77;;;38.70;74.00;;;;;;5012956;28;20438;-65
2021/08/15 10:45:36;;;;;;;11.40;10.50;;;37.80;74.70;;;;;;5013562;28;20222;-65
2021/08/15 10:48:05;;;;;;;11.47;10.63;;;37.60;74.50;;;;;;5013661;28;20437;-64
2021/08/15 10:50:51;;;;;;;11.07;10.03;;;37.70;74.90;;;;;;5013165;28;20198;-64
2021/08/15 10:53:28;;;;;;;13.40;12.20;;;39.10;72.60;;;;;;5013184;28;20499;-64
2021/08/15 10:56:02;;;;;;;12.90;11.70;;;39.30;71.20;;;;;;5013408;28;20410;-64
2021/08/15 10:58:38;;;;;;;12.00;10.90;;;38.10;72.00;;;;;;5012987;28;20479;-63
2021/08/15 11:01:06;;;;;;;12.17;11.20;;;36.60;74.20;;;;;;5013353;28;20827;-64
2021/08/15 11:03:33;;;;;;;13.80;12.70;;;35.00;79.00;;;;;;4995553;28;20458;-64
2021/08/15 11:06:00;;;;;;;14.33;13.03;;;33.70;82.30;;;;;;5013120;28;20794;-64
2021/08/15 11:08:32;;;;;;;12.97;11.87;;;32.80;84.70;;;;;;5012678;28;20421;-64
2021/08/15 11:11:14;;;;;;;12.53;11.53;;;32.40;87.10;;;;;;5013030;28;20453;-65
2021/08/15 11:13:40;;;;;;;12.50;11.23;;;34.20;82.70;;;;;;5013437;28;20438;-64
2021/08/15 11:16:27;;;;;;;12.27;11.10;;;36.60;78.70;;;;;;5012965;28;20472;-65
2021/08/15 11:19:07;;;;;;;11.90;10.80;;;38.50;72.10;;;;;;5012762;28;20592;-63
2021/08/15 11:22:04;;;;;;;10.60;9.63;;;39.30;70.80;;;;;;5012983;28;20414;-64
2021/08/15 11:24:32;;;;;;;10.60;9.80;;;41.00;64.50;;;;;;5012829;28;20422;-63
2021/08/15 11:26:58;;;;;;;11.00;10.13;;;40.00;63.60;;;;;;5012854;28;20501;-63
2021/08/15 11:29:24;;;;;;;11.60;10.63;;;36.90;68.70;;;;;;5012569;28;20418;-64
2021/08/15 11:31:51;;;;;;;13.07;11.87;;;35.50;73.40;;;;;;5012676;28;20996;-63
2021/08/15 11:34:17;;;;;;;12.17;11.10;;;34.30;75.40;;;;;;5012688;28;20424;-65
2021/08/15 11:36:43;;;;;;;10.53;9.63;;;35.80;72.80;;;;;;5013182;28;20425;-64
2021/08/15 11:39:09;;;;;;;11.73;10.77;;;37.80;68.80;;;;;;5012256;28;20225;-64
2021/08/15 11:41:36;;;;;;;11.70;10.70;;;37.90;67.90;;;;;;5012674;28;20186;-64
2021/08/15 11:44:02;;;;;;;11.73;10.63;;;37.10;68.90;;;;;;5012698;28;21047;-64
2021/08/15 11:46:28;;;;;;;11.67;10.67;;;36.00;70.60;;;;;;5012418;28;20426;-64
2021/08/15 11:48:54;;;;;;;11.97;11.07;;;35.40;72.40;;;;;;5012147;28;20433;-64
2021/08/15 11:51:20;;;;;;;11.80;10.70;;;34.50;73.90;;;;;;5012345;28;20459;-64
2021/08/15 11:53:47;;;;;;;14.33;13.07;;;33.40;80.70;;;;;;5012252;28;20250;-64
2021/08/15 11:56:16;;;;;;;13.30;12.40;;;32.50;82.70;;;;;;5012422;28;20237;-64
2021/08/15 11:58:46;;;;;;;14.80;13.60;;;32.10;86.50;;;;;;5012041;28;20798;-64
2021/08/15 12:01:14;;;;;;;14.43;13.30;;;31.70;88.30;;;;;;5012400;28;20426;-64
2021/08/15 12:03:40;;;;;;;15.80;14.60;;;31.40;90.40;;;;;;5012215;28;20445;-64
2021/08/15 12:06:07;;;;;;;15.90;14.40;;;30.80;92.10;;;;;;5012161;28;20789;-64
2021/08/15 12:08:32;;;;;;;14.30;12.90;;;30.70;94.80;;;;;;5011834;28;20934;-64
2021/08/15 12:10:58;;;;;;;14.97;13.87;;;30.60;95.40;;;;;;5012269;28;20489;-63
2021/08/15 12:13:38;;;;;;;15.93;14.40;;;30.60;98.80;;;;;;5011529;28;20202;-63
2021/08/15 12:16:03;;;;;;;16.10;14.70;;;30.60;98.20;;;;;;5012248;28;20175;-62
2021/08/15 12:18:37;;;;;;;17.00;15.30;;;30.20;99.90;;;;;;5013839;28;20414;-63
2021/08/15 12:21:16;;;;;;;16.10;14.70;;;29.90;99.90;;;;;;5018676;28;20167;-63
2021/08/15 12:23:57;;;;;;;15.70;14.20;;;29.40;99.90;;;;;;5018486;28;20488;-63
2021/08/15 12:26:27;;;;;;;16.37;15.00;;;29.30;99.90;;;;;;5018728;28;20422;-64
2021/08/15 12:29:02;;;;;;;17.73;15.17;;;29.50;99.90;;;;;;5018352;28;20417;-64